createdAt,value
2022-08-30T00:00:59.762Z,8.35
2022-08-30T00:03:27.526Z,7.30
2022-08-30T00:05:56.359Z,7.32
2022-08-30T00:08:23.421Z,7.72
2022-08-30T00:10:51.288Z,7.82
2022-08-30T00:13:18.753Z,9.23
2022-08-30T00:15:45.850Z,7.75
2022-08-30T00:18:12.781Z,8.02
2022-08-30T00:20:39.681Z,7.90
2022-08-30T00:23:06.614Z,8.43
2022-08-30T00:25:33.546Z,8.70
2022-08-30T00:28:00.457Z,8.55
2022-08-30T00:30:27.307Z,8.85
2022-08-30T00:32:54.190Z,8.55
2022-08-30T00:35:21.102Z,8.65
2022-08-30T00:37:48.544Z,8.48
2022-08-30T00:40:16.102Z,9.18
2022-08-30T00:42:43.777Z,8.40
2022-08-30T00:45:21.975Z,9.35
2022-08-30T00:47:48.797Z,9.18
2022-08-30T00:50:16.732Z,9.18
2022-08-30T00:52:45.407Z,8.90
2022-08-30T00:55:14.244Z,8.70
2022-08-30T00:57:45.031Z,8.43
2022-08-30T01:00:13.242Z,8.68
2022-08-30T01:02:40.138Z,8.93
2022-08-30T01:05:08.548Z,8.40
2022-08-30T01:07:35.448Z,8.73
2022-08-30T01:10:02.679Z,8.80
2022-08-30T01:12:30.132Z,8.90
2022-08-30T01:14:58.117Z,8.30
2022-08-30T01:17:25.669Z,8.93
2022-08-30T01:20:00.824Z,8.10
2022-08-30T01:22:45.010Z,8.23
2022-08-30T01:25:15.020Z,8.88
2022-08-30T01:27:44.511Z,9.02
2022-08-30T01:30:11.896Z,8.80
2022-08-30T01:32:44.640Z,9.85
2022-08-30T01:35:12.720Z,9.13
2022-08-30T01:37:39.576Z,9.38
2022-08-30T01:40:07.406Z,8.82
2022-08-30T01:42:34.903Z,9.60
2022-08-30T01:45:01.768Z,8.88
2022-08-30T01:47:28.602Z,10.07
2022-08-30T01:54:23.069Z,9.85
2022-08-30T01:56:54.224Z,9.63
2022-08-30T01:59:21.066Z,9.02
2022-08-30T02:01:47.879Z,10.27
2022-08-30T02:04:14.904Z,9.13
2022-08-30T02:06:41.990Z,10.57
2022-08-30T02:09:08.787Z,9.75
2022-08-30T02:11:35.722Z,9.70
2022-08-30T02:14:02.683Z,9.23
2022-08-30T02:16:29.668Z,9.00
2022-08-30T02:18:57.264Z,9.75
2022-08-30T02:21:24.828Z,11.15
2022-08-30T02:23:52.081Z,9.45
2022-08-30T02:26:19.196Z,10.20
2022-08-30T02:28:49.629Z,9.35
2022-08-30T02:31:20.448Z,9.63
2022-08-30T02:33:48.809Z,9.68
2022-08-30T02:36:15.693Z,10.55
2022-08-30T02:38:42.559Z,9.93
2022-08-30T02:41:09.369Z,8.93
2022-08-30T02:43:36.176Z,9.65
2022-08-30T02:46:03.071Z,10.38
2022-08-30T02:48:29.903Z,10.30
2022-08-30T02:50:56.904Z,10.02
2022-08-30T02:53:23.861Z,10.13
2022-08-30T02:55:53.054Z,9.93
2022-08-30T02:58:19.866Z,10.27
2022-08-30T03:00:46.725Z,10.25
2022-08-30T03:03:13.631Z,9.48
2022-08-30T03:05:40.643Z,10.65
2022-08-30T03:08:09.348Z,10.10
2022-08-30T03:10:36.367Z,9.50
2022-08-30T03:13:03.505Z,9.63
2022-08-30T03:15:30.334Z,10.60
2022-08-30T03:17:57.174Z,11.13
2022-08-30T03:20:24.522Z,9.95
2022-08-30T03:22:51.516Z,10.25
2022-08-30T03:29:51.011Z,10.07
2022-08-30T03:32:18.119Z,10.40
2022-08-30T03:34:44.982Z,10.35
2022-08-30T03:37:11.880Z,10.07
2022-08-30T03:39:38.826Z,10.82
2022-08-30T03:42:05.828Z,10.23
2022-08-30T03:44:32.725Z,10.93
2022-08-30T03:46:59.555Z,10.52
2022-08-30T03:49:26.378Z,10.98
2022-08-30T03:51:53.173Z,10.30
2022-08-30T03:54:20.055Z,9.70
2022-08-30T03:56:46.881Z,9.65
2022-08-30T03:59:13.881Z,10.27
2022-08-30T04:01:42.073Z,10.07
2022-08-30T04:04:09.134Z,10.80
2022-08-30T04:06:35.936Z,10.73
2022-08-30T04:09:02.796Z,11.30
2022-08-30T04:11:29.582Z,10.40
2022-08-30T04:13:56.856Z,10.82
2022-08-30T04:16:24.341Z,9.38
2022-08-30T04:18:51.180Z,10.38
2022-08-30T04:21:18.215Z,9.75
2022-08-30T04:23:45.181Z,10.30
2022-08-30T04:26:12.023Z,10.85
2022-08-30T04:28:38.821Z,10.40
2022-08-30T04:31:13.327Z,10.75
2022-08-30T04:33:42.213Z,9.88
2022-08-30T04:36:09.404Z,10.25
2022-08-30T04:38:36.782Z,9.77
2022-08-30T04:41:06.225Z,9.50
2022-08-30T04:43:33.426Z,10.07
2022-08-30T04:46:00.425Z,10.20
2022-08-30T04:48:27.261Z,10.20
2022-08-30T04:50:54.231Z,10.48
2022-08-30T04:53:21.081Z,10.50
2022-08-30T04:55:47.902Z,10.95
2022-08-30T04:58:15.051Z,9.65
2022-08-30T05:00:43.808Z,9.82
2022-08-30T05:03:10.726Z,10.68
2022-08-30T05:05:40.317Z,9.85
2022-08-30T05:08:08.511Z,10.68
2022-08-30T05:10:39.165Z,10.98
2022-08-30T05:13:06.019Z,9.90
2022-08-30T05:15:33.090Z,10.18
2022-08-30T05:18:00.136Z,10.05
2022-08-30T05:20:27.114Z,11.13
2022-08-30T05:22:54.270Z,10.90
2022-08-30T05:25:27.993Z,9.90
2022-08-30T05:27:55.025Z,9.35
2022-08-30T05:30:23.624Z,9.80
2022-08-30T05:32:53.716Z,9.95
2022-08-30T05:35:25.802Z,9.57
2022-08-30T05:37:53.961Z,10.73
2022-08-30T05:40:22.138Z,9.77
2022-08-30T05:42:49.684Z,8.77
2022-08-30T05:45:17.308Z,9.45
2022-08-30T05:47:44.587Z,9.43
2022-08-30T05:50:11.536Z,9.45
2022-08-30T05:52:39.365Z,9.75
2022-08-30T05:55:07.804Z,9.98
2022-08-30T05:57:35.819Z,10.77
2022-08-30T06:00:06.544Z,9.75
2022-08-30T06:02:39.707Z,9.55
2022-08-30T06:05:07.096Z,9.40
2022-08-30T06:07:34.842Z,9.45
2022-08-30T06:10:02.168Z,9.70
2022-08-30T06:12:29.187Z,9.70
2022-08-30T06:14:56.203Z,8.98
2022-08-30T06:17:23.093Z,9.65
2022-08-30T06:19:50.055Z,9.50
2022-08-30T06:22:16.977Z,9.23
2022-08-30T06:24:56.936Z,9.10
2022-08-30T06:27:24.726Z,8.93
2022-08-30T06:29:52.538Z,8.75
2022-08-30T06:32:19.654Z,8.82
2022-08-30T06:34:46.776Z,8.43
2022-08-30T06:37:21.994Z,8.90
2022-08-30T06:40:00.500Z,8.93
2022-08-30T06:42:32.156Z,8.90
2022-08-30T06:45:02.190Z,8.70
2022-08-30T06:47:42.758Z,8.00
2022-08-30T06:50:22.645Z,8.38
2022-08-30T06:52:49.609Z,8.73
2022-08-30T06:55:16.911Z,8.35
2022-08-30T06:57:44.237Z,8.80
2022-08-30T07:00:13.555Z,8.00
2022-08-30T07:02:40.796Z,8.73
2022-08-30T07:05:08.354Z,8.50
2022-08-30T07:07:35.707Z,8.43
2022-08-30T07:10:07.170Z,8.70
2022-08-30T07:12:36.118Z,8.13
2022-08-30T07:15:04.757Z,8.52
2022-08-30T07:17:50.127Z,8.48
2022-08-30T07:20:18.362Z,7.70
2022-08-30T07:22:46.455Z,8.40
2022-08-30T07:25:13.861Z,8.73
2022-08-30T07:27:40.943Z,8.75
2022-08-30T07:30:08.369Z,9.43
2022-08-30T07:32:38.499Z,8.20
2022-08-30T07:35:05.907Z,8.10
2022-08-30T07:37:32.787Z,8.07
2022-08-30T07:39:59.737Z,7.93
2022-08-30T07:42:26.637Z,8.57
2022-08-30T07:44:56.605Z,8.23
2022-08-30T07:47:23.934Z,8.45
2022-08-30T07:49:51.014Z,8.73
2022-08-30T07:52:17.978Z,8.40
2022-08-30T07:54:44.881Z,7.95
2022-08-30T07:57:12.615Z,7.50
2022-08-30T07:59:43.272Z,8.18
2022-08-30T08:02:10.164Z,8.50
2022-08-30T08:04:37.337Z,8.27
2022-08-30T08:07:04.216Z,6.95
2022-08-30T08:09:31.107Z,7.70
2022-08-30T08:11:57.995Z,7.82
2022-08-30T08:14:24.953Z,7.78
2022-08-30T08:16:52.028Z,7.68
2022-08-30T08:19:19.674Z,7.60
2022-08-30T08:21:46.539Z,8.05
2022-08-30T08:24:13.627Z,7.97
2022-08-30T08:26:41.019Z,8.10
2022-08-30T08:29:12.251Z,8.07
2022-08-30T08:31:41.442Z,7.63
2022-08-30T08:34:08.518Z,7.80
2022-08-30T08:36:35.731Z,7.95
2022-08-30T08:39:03.455Z,8.05
2022-08-30T08:41:39.676Z,8.30
2022-08-30T08:44:09.400Z,7.70
2022-08-30T08:47:03.849Z,8.52
2022-08-30T08:49:30.707Z,7.72
2022-08-30T08:52:16.878Z,8.80
2022-08-30T08:54:52.782Z,9.25
2022-08-30T08:57:24.532Z,8.88
2022-08-30T08:59:54.524Z,8.63
2022-08-30T09:02:26.682Z,8.55
2022-08-30T09:04:56.330Z,9.32
2022-08-30T09:07:30.110Z,8.35
2022-08-30T09:09:57.901Z,8.25
2022-08-30T09:12:25.139Z,7.93
2022-08-30T09:14:55.637Z,8.25
2022-08-30T09:17:26.106Z,7.38
2022-08-30T09:19:53.128Z,8.57
2022-08-30T09:22:39.728Z,7.90
2022-08-30T09:25:24.025Z,7.75
2022-08-30T09:27:52.212Z,8.18
2022-08-30T09:30:25.338Z,8.90
2022-08-30T09:33:05.441Z,7.45
2022-08-30T09:35:43.869Z,7.28
2022-08-30T09:38:13.104Z,7.68
2022-08-30T09:40:43.336Z,7.40
2022-08-30T09:43:12.012Z,7.22
2022-08-30T09:45:44.188Z,7.50
2022-08-30T09:48:37.273Z,6.95
2022-08-30T09:51:10.442Z,7.55
2022-08-30T09:54:16.749Z,7.00
2022-08-30T09:57:12.626Z,7.60
2022-08-30T10:00:07.101Z,7.35
2022-08-30T10:02:36.994Z,6.97
2022-08-30T10:05:34.265Z,6.40
2022-08-30T10:08:20.026Z,6.95
2022-08-30T10:10:56.288Z,6.53
2022-08-30T10:13:36.137Z,7.07
2022-08-30T10:16:11.950Z,7.70
2022-08-30T10:19:07.685Z,6.85
2022-08-30T10:21:37.683Z,7.85
2022-08-30T10:24:10.153Z,6.82
2022-08-30T10:26:53.026Z,6.82
2022-08-30T10:29:24.171Z,6.97
2022-08-30T10:32:12.913Z,6.90
2022-08-30T10:34:56.767Z,6.93
2022-08-30T10:37:26.095Z,6.82
2022-08-30T10:40:00.744Z,7.03
2022-08-30T10:42:33.823Z,6.78
2022-08-30T10:45:05.527Z,7.07
2022-08-30T10:47:35.162Z,6.68
2022-08-30T10:50:11.244Z,7.10
2022-08-30T10:52:47.534Z,7.00
2022-08-30T10:55:36.452Z,7.50
2022-08-30T10:58:04.633Z,7.97
2022-08-30T11:00:37.737Z,6.80
2022-08-30T11:06:32.459Z,6.75
2022-08-30T11:09:29.894Z,6.75
2022-08-30T11:12:31.111Z,7.15
2022-08-30T11:14:59.320Z,6.72
2022-08-30T11:17:28.253Z,7.35
2022-08-30T11:19:57.366Z,6.97
2022-08-30T11:22:30.068Z,6.95
2022-08-30T11:25:14.758Z,7.13
2022-08-30T11:27:56.505Z,7.47
2022-08-30T11:30:27.527Z,6.85
2022-08-30T11:33:09.845Z,7.18
2022-08-30T11:35:37.143Z,7.28
2022-08-30T11:38:26.040Z,7.10
2022-08-30T11:45:26.773Z,6.20
2022-08-30T11:47:56.719Z,5.88
2022-08-30T11:50:27.414Z,6.88
2022-08-30T11:53:01.860Z,6.15
2022-08-30T11:55:47.638Z,6.25
2022-08-30T11:58:37.867Z,6.35
2022-08-30T12:01:41.899Z,6.18
2022-08-30T12:04:15.432Z,5.80
2022-08-30T12:06:43.077Z,6.13
2022-08-30T12:09:35.758Z,6.57
2022-08-30T12:12:12.779Z,6.50
2022-08-30T12:14:54.720Z,6.20
2022-08-30T12:18:20.306Z,6.18
2022-08-30T12:20:48.609Z,6.25
2022-08-30T12:23:23.132Z,6.90
2022-08-30T12:25:50.194Z,5.90
2022-08-30T12:28:22.524Z,6.30
2022-08-30T12:30:49.536Z,7.30
2022-08-30T12:33:28.881Z,5.55
2022-08-30T12:35:59.274Z,6.40
2022-08-30T12:38:27.973Z,6.43
2022-08-30T12:40:57.951Z,7.05
2022-08-30T12:43:40.888Z,6.38
2022-08-30T12:46:11.542Z,5.93
2022-08-30T12:48:39.315Z,6.20
2022-08-30T12:55:33.919Z,6.68
2022-08-30T12:58:02.205Z,5.68
2022-08-30T13:00:42.960Z,6.30
2022-08-30T13:03:30.309Z,6.13
2022-08-30T13:05:57.746Z,5.95
2022-08-30T13:08:25.943Z,5.82
2022-08-30T13:11:08.249Z,6.15
2022-08-30T13:13:41.344Z,5.60
2022-08-30T13:16:20.863Z,5.50
2022-08-30T13:18:49.664Z,6.25
2022-08-30T13:21:34.025Z,5.72
2022-08-30T13:24:05.581Z,6.30
2022-08-30T13:26:34.196Z,5.68
2022-08-30T13:29:05.214Z,5.40
2022-08-30T13:31:37.550Z,5.90
2022-08-30T13:34:05.187Z,6.03
2022-08-30T13:36:34.651Z,6.15
2022-08-30T13:39:02.474Z,5.82
2022-08-30T13:41:34.567Z,5.63
2022-08-30T13:44:13.290Z,5.60
2022-08-30T13:46:42.687Z,5.38
2022-08-30T13:52:23.778Z,5.75
2022-08-30T13:54:54.663Z,5.13
2022-08-30T14:00:14.778Z,5.55
2022-08-30T14:02:46.666Z,5.93
2022-08-30T14:05:46.879Z,5.78
2022-08-30T14:08:05.057Z,5.70
2022-08-30T14:10:33.046Z,5.32
2022-08-30T14:13:08.525Z,5.22
2022-08-30T14:15:39.317Z,4.75
2022-08-30T14:18:06.985Z,5.40
2022-08-30T14:20:38.832Z,5.00
2022-08-30T14:23:09.926Z,5.45
2022-08-30T14:25:37.734Z,5.00
2022-08-30T14:28:08.269Z,5.22
2022-08-30T14:30:36.850Z,5.03
2022-08-30T14:33:03.992Z,5.18
2022-08-30T14:35:31.235Z,5.63
2022-08-30T14:37:58.589Z,5.28
2022-08-30T14:40:26.050Z,5.10
2022-08-30T14:42:53.003Z,4.90
2022-08-30T14:45:19.944Z,5.30
2022-08-30T14:47:47.184Z,5.65
2022-08-30T14:50:14.615Z,5.05
2022-08-30T14:52:41.515Z,5.32
2022-08-30T14:55:12.746Z,5.68
2022-08-30T14:57:40.606Z,6.10
2022-08-30T15:00:10.388Z,4.93
2022-08-30T15:02:40.798Z,5.15
2022-08-30T15:05:08.392Z,5.53
2022-08-30T15:07:36.031Z,5.68
2022-08-30T15:10:05.801Z,5.20
2022-08-30T15:12:32.943Z,5.07
2022-08-30T15:15:00.818Z,4.82
2022-08-30T15:17:28.594Z,5.53
2022-08-30T15:19:55.496Z,5.35
2022-08-30T15:22:22.625Z,5.95
2022-08-30T15:24:50.835Z,6.20
2022-08-30T15:27:18.020Z,5.80
2022-08-30T15:29:45.138Z,6.20
2022-08-30T15:32:12.053Z,5.53
2022-08-30T15:34:39.115Z,5.70
2022-08-30T15:37:06.260Z,5.38
2022-08-30T15:39:34.853Z,5.50
2022-08-30T15:42:01.984Z,5.82
2022-08-30T15:44:31.107Z,6.65
2022-08-30T15:46:58.251Z,5.93
2022-08-30T15:49:25.315Z,6.25
2022-08-30T15:51:53.963Z,5.75
2022-08-30T15:54:22.090Z,6.32
2022-08-30T15:56:48.955Z,6.03
2022-08-30T15:59:18.462Z,5.93
2022-08-30T16:01:47.713Z,6.00
2022-08-30T16:04:18.410Z,6.22
2022-08-30T16:06:45.755Z,6.53
2022-08-30T16:09:12.667Z,6.22
2022-08-30T16:11:39.634Z,6.28
2022-08-30T16:14:06.793Z,6.30
2022-08-30T16:16:37.593Z,6.43
2022-08-30T16:19:04.931Z,5.93
2022-08-30T16:21:32.606Z,6.03
2022-08-30T16:24:00.934Z,6.20
2022-08-30T16:26:28.804Z,6.30
2022-08-30T16:32:49.441Z,7.60
2022-08-30T16:35:16.319Z,7.57
2022-08-30T16:37:43.134Z,7.18
2022-08-30T16:40:11.191Z,6.88
2022-08-30T16:42:38.258Z,6.10
2022-08-30T16:45:10.317Z,6.78
2022-08-30T16:47:37.985Z,6.60
2022-08-30T16:50:05.710Z,6.90
2022-08-30T16:52:32.623Z,6.63
2022-08-30T16:55:01.021Z,7.32
2022-08-30T16:57:28.659Z,6.68
2022-08-30T16:59:55.650Z,6.80
2022-08-30T17:02:23.985Z,6.72
2022-08-30T17:04:53.222Z,6.75
2022-08-30T17:07:22.413Z,6.90
2022-08-30T17:09:49.853Z,7.13
2022-08-30T17:12:16.797Z,6.55
2022-08-30T17:14:43.811Z,7.25
2022-08-30T17:17:10.752Z,6.57
2022-08-30T17:19:42.246Z,6.90
2022-08-30T17:22:13.031Z,6.13
2022-08-30T17:24:40.146Z,4.65
2022-08-30T17:27:07.355Z,4.50
2022-08-30T17:29:34.624Z,3.92
2022-08-30T17:32:03.743Z,4.00
2022-08-30T17:34:31.909Z,3.92
2022-08-30T17:37:00.122Z,3.00
2022-08-30T17:39:27.411Z,3.05
2022-08-30T17:41:55.066Z,3.63
2022-08-30T17:44:25.511Z,2.88
2022-08-30T17:46:53.264Z,3.45
2022-08-30T17:49:21.228Z,3.20
2022-08-30T17:51:56.350Z,2.90
2022-08-30T17:58:52.885Z,2.97
2022-08-30T18:01:20.056Z,3.60
2022-08-30T18:03:48.705Z,3.92
2022-08-30T18:06:15.863Z,3.90
2022-08-30T18:08:43.422Z,3.88
2022-08-30T18:11:10.283Z,3.75
2022-08-30T18:13:37.135Z,3.67
2022-08-30T18:16:04.368Z,3.85
2022-08-30T18:18:32.358Z,3.47
2022-08-30T18:20:59.218Z,3.80
2022-08-30T18:23:27.169Z,3.78
2022-08-30T18:25:58.691Z,3.72
2022-08-30T18:28:26.074Z,4.00
2022-08-30T18:30:53.723Z,4.25
2022-08-30T18:33:20.598Z,3.92
2022-08-30T18:35:48.744Z,3.70
2022-08-30T18:38:15.586Z,3.97
2022-08-30T18:40:42.557Z,4.35
2022-08-30T18:43:10.607Z,3.88
2022-08-30T18:45:38.090Z,4.78
2022-08-30T18:48:05.611Z,4.13
2022-08-30T18:50:32.884Z,3.97
2022-08-30T18:53:00.189Z,4.28
2022-08-30T18:55:27.203Z,3.75
2022-08-30T18:57:54.196Z,4.32
2022-08-30T19:00:21.891Z,4.57
2022-08-30T19:02:48.717Z,4.47
2022-08-30T19:05:16.273Z,4.57
2022-08-30T19:07:44.170Z,4.07
2022-08-30T19:10:12.423Z,4.72
2022-08-30T19:12:39.767Z,3.90
2022-08-30T19:15:10.880Z,4.50
2022-08-30T19:17:39.349Z,4.53
2022-08-30T19:20:08.409Z,4.35
2022-08-30T19:25:24.182Z,4.30
2022-08-30T19:27:51.525Z,4.80
2022-08-30T19:30:24.117Z,4.45
2022-08-30T19:32:55.737Z,4.40
2022-08-30T19:35:22.675Z,4.80
2022-08-30T19:37:49.524Z,4.50
2022-08-30T19:40:17.233Z,4.75
2022-08-30T19:42:46.165Z,4.63
2022-08-30T19:45:14.752Z,5.30
2022-08-30T19:47:41.609Z,4.78
2022-08-30T19:50:08.713Z,4.47
2022-08-30T19:52:36.467Z,3.72
2022-08-30T19:55:04.615Z,4.40
2022-08-30T19:57:31.611Z,3.90
2022-08-30T19:59:59.053Z,4.43
2022-08-30T20:02:26.243Z,4.10
2022-08-30T20:04:54.187Z,4.35
2022-08-30T20:07:25.234Z,4.28
2022-08-30T20:12:21.165Z,4.60
2022-08-30T20:14:48.181Z,4.60
2022-08-30T20:17:15.646Z,5.13
2022-08-30T20:19:42.567Z,5.35
2022-08-30T20:22:09.441Z,5.20
2022-08-30T20:24:33.319Z,5.32
2022-08-30T20:27:08.500Z,5.85
2022-08-30T20:29:35.411Z,5.07
2022-08-30T20:32:03.339Z,5.15
2022-08-30T20:34:30.233Z,5.65
2022-08-30T20:36:57.271Z,5.25
2022-08-30T20:39:24.711Z,5.93
2022-08-30T20:41:51.571Z,6.80
2022-08-30T20:44:18.598Z,5.18
2022-08-30T20:46:46.862Z,5.28
2022-08-30T20:49:13.916Z,5.00
2022-08-30T20:51:40.920Z,4.97
2022-08-30T20:54:07.930Z,4.90
2022-08-30T20:56:35.165Z,5.43
2022-08-30T20:59:03.591Z,5.05
2022-08-30T21:01:35.631Z,5.60
2022-08-30T21:04:05.539Z,6.05
2022-08-30T21:06:37.369Z,5.18
2022-08-30T21:09:07.947Z,5.35
2022-08-30T21:11:35.237Z,5.88
2022-08-30T21:14:02.218Z,5.38
2022-08-30T21:16:30.191Z,5.32
2022-08-30T21:18:57.127Z,5.60
2022-08-30T21:21:25.527Z,5.63
2022-08-30T21:23:53.171Z,5.38
2022-08-30T21:26:20.191Z,5.68
2022-08-30T21:28:48.292Z,4.82
2022-08-30T21:31:17.297Z,5.55
2022-08-30T21:33:44.274Z,5.47
2022-08-30T21:36:29.589Z,5.95
2022-08-30T21:39:00.838Z,5.68
2022-08-30T21:41:28.343Z,5.97
2022-08-30T21:43:57.797Z,5.90
2022-08-30T21:46:25.729Z,5.65
2022-08-30T21:48:52.750Z,5.20
2022-08-30T21:51:19.720Z,5.45
2022-08-30T21:53:46.566Z,6.03
2022-08-30T21:56:21.265Z,5.00
2022-08-30T21:58:48.665Z,6.00
2022-08-30T22:01:18.456Z,6.18
2022-08-30T22:03:45.498Z,5.57
2022-08-30T22:06:12.765Z,5.25
2022-08-30T22:08:41.332Z,5.75
2022-08-30T22:11:12.332Z,6.10
2022-08-30T22:13:40.216Z,5.97
2022-08-30T22:16:07.573Z,5.90
2022-08-30T22:18:34.441Z,6.10
2022-08-30T22:21:02.496Z,6.28
2022-08-30T22:23:30.988Z,6.38
2022-08-30T22:25:58.815Z,6.28
2022-08-30T22:28:26.000Z,6.03
2022-08-30T22:30:53.505Z,6.13
2022-08-30T22:33:20.318Z,6.30
2022-08-30T22:35:47.236Z,6.13
2022-08-30T22:38:14.620Z,6.18
2022-08-30T22:40:48.478Z,6.47
2022-08-30T22:43:15.946Z,5.95
2022-08-30T22:45:42.854Z,6.05
2022-08-30T22:48:09.994Z,6.22
2022-08-30T22:50:37.010Z,6.47
2022-08-30T22:53:04.099Z,6.10
2022-08-30T22:55:30.950Z,6.05
2022-08-30T22:57:57.802Z,6.43
2022-08-30T23:00:24.766Z,5.38
2022-08-30T23:02:52.762Z,6.18
2022-08-30T23:05:21.174Z,6.53
2022-08-30T23:07:48.208Z,6.43
2022-08-30T23:10:15.085Z,6.25
2022-08-30T23:12:41.988Z,6.55
2022-08-30T23:15:12.452Z,6.90
2022-08-30T23:17:39.912Z,5.35
2022-08-30T23:20:07.451Z,5.95
2022-08-30T23:22:34.277Z,5.63
2022-08-30T23:25:19.703Z,5.68
2022-08-30T23:28:05.662Z,6.40
2022-08-30T23:30:51.064Z,5.82
2022-08-30T23:33:36.344Z,5.50
2022-08-30T23:36:26.858Z,6.07
2022-08-30T23:39:12.265Z,6.30
2022-08-30T23:41:57.626Z,5.63
2022-08-30T23:44:43.100Z,6.30
2022-08-30T23:47:28.460Z,6.65
2022-08-30T23:50:17.302Z,6.40
2022-08-30T23:53:02.644Z,6.13
2022-08-30T23:55:47.902Z,6.50
2022-08-30T23:58:33.432Z,5.72
